Central Park, Illinois
Current Conditions -  °F | °C
As of 3:15 PM on Friday 24 Oct 2014 (Local Time) from KDNV Reporting Station
Scattered Clouds Scattered Clouds  
Wind Chill: 67°   Ceiling: Unl
Heat Index: 67°   Visibility: 7mi
Dew Point: 54°   Wind: 10mph
Humidity: 61%   Direction: 270°W
Pressure: 29.99"   Gusts: NA
Location:  40.1365°N, 87.6307°W
Report Text: KDNV 242015Z AUTO 27009KT 7SM SCT034 SCT040 20/12 A2999 RMK AO2 T01970121
Loading
Personal Weather Stations






























Interactive Weather Map
Tropical Storm Tracking
New forecast layout! Learn more

10-Day Weather Forecast

Advertisements
Track Severe Weather on mobile